メインページ
METAR-TAF:

METAR-TAF

空港 :

ブダペスト, ハンガリー

リスト・フェレンツ国際空港

緯度: 47-26N, 経度: 019-16E, 海抜: 151m

現時点の気象観測

当レポートは35分前の04:30(UTC)に作成
変向風 2kt
気温 7°C
湿度 100%
気圧 1017 hPa
視程: 1400m
高度200ftの雲は散在している
高度20000ftの千切れ雲あり
靄, 散在霧

METAR: LHBP 210430Z VRB02KT 1400 R31L/P1500N R31R/1300U BR BCFG SCT002 BKN200 07/07 Q1017 NOSIG

時間: 07:05 (05:05 UTC)

予報

当レポートは5時間50分前の23:15(UTC)に作成
予報は21日の 00時(UTC)から 21日の 24時(UTC)まで有効
変向風 3kt
視程: 3000m
21日の 00時(UTC)から 21日の 09時(UTC)まで一時的に
視程: 0100m
高度100ftの
21日の 09時(UTC)から 21日の 11時(UTC)まで徐々に
西/北西の風 5kt
視程: 6000m
21日の 11時(UTC)から 21日の 13時(UTC)まで徐々に
視程10km以上
1,500メートル以下は雲なし、積乱雲なし
21日の 17時(UTC)から 21日の 24時(UTC)まで一時的に
変向風 3kt
高度4000ftの雲は散在している
高度5300ftの千切れ雲あり

TAF: LHBP 202315Z 2100/2124 VRB03KT 3000 BR NSC TEMPO 2100/2109 0100 FG VV001 BECMG 2109/2111 29005KT 6000 NSW BECMG 2111/2113 CAVOK TEMPO 2117/2124 VRB03KT SCT040 BKN053

4,000以上の空港の気象観測と天気予報(METAR報とTAF報)

利用可能な観測所は地図上に黄色い丸と赤い丸で示す。

丸の上にカーソルを重ねると観測所名を参照できる。

次にクリックすると気象観測と天気予報を参照できる。

マップの切り替え:黒色「×」印の緑ボタンをクリックして拡大、「-」印の緑ボタンをクリックして縮小、緑色の三角印をクリックして隣りの地図に切り替え


METAR-TAF: